sensor_id;sensor_type;location;lat;lon;timestamp;pressure;altitude;pressure_sealevel;temperature;humidity
15477;BME280;7840;42.702;23.296;2022-07-04T00:00:52;95299.84;;;22.16;63.86
15477;BME280;7840;42.702;23.296;2022-07-04T00:03:20;95297.66;;;22.18;63.43
15477;BME280;7840;42.702;23.296;2022-07-04T00:05:47;95300.13;;;22.06;63.11
15477;BME280;7840;42.702;23.296;2022-07-04T00:08:16;95295.81;;;21.96;63.09
15477;BME280;7840;42.702;23.296;2022-07-04T00:10:56;95302.34;;;22.04;62.74
15477;BME280;7840;42.702;23.296;2022-07-04T00:13:24;95299.13;;;21.93;62.37
15477;BME280;7840;42.702;23.296;2022-07-04T00:15:55;95306.09;;;21.85;62.05
15477;BME280;7840;42.702;23.296;2022-07-04T00:18:23;95302.75;;;21.89;62.13
15477;BME280;7840;42.702;23.296;2022-07-04T00:20:53;95309.91;;;21.93;61.91
15477;BME280;7840;42.702;23.296;2022-07-04T00:23:22;95307.88;;;21.90;62.08
15477;BME280;7840;42.702;23.296;2022-07-04T00:25:52;95306.44;;;21.93;61.93
15477;BME280;7840;42.702;23.296;2022-07-04T00:28:20;95298.03;;;21.94;61.99
15477;BME280;7840;42.702;23.296;2022-07-04T00:31:02;95294.84;;;21.83;61.90
15477;BME280;7840;42.702;23.296;2022-07-04T00:33:30;95298.13;;;21.80;62.03
15477;BME280;7840;42.702;23.296;2022-07-04T00:36:01;95291.78;;;21.76;62.03
15477;BME280;7840;42.702;23.296;2022-07-04T00:38:38;95285.72;;;21.62;62.85
15477;BME280;7840;42.702;23.296;2022-07-04T00:41:16;95277.13;;;21.60;62.74
15477;BME280;7840;42.702;23.296;2022-07-04T00:44:00;95277.88;;;21.52;63.20
15477;BME280;7840;42.702;23.296;2022-07-04T00:46:27;95277.56;;;21.53;63.21
15477;BME280;7840;42.702;23.296;2022-07-04T00:48:55;95285.38;;;21.55;63.25
15477;BME280;7840;42.702;23.296;2022-07-04T00:51:23;95280.09;;;21.50;62.95
15477;BME280;7840;42.702;23.296;2022-07-04T00:53:53;95281.56;;;21.56;62.00
15477;BME280;7840;42.702;23.296;2022-07-04T00:56:22;95277.06;;;21.43;62.95
15477;BME280;7840;42.702;23.296;2022-07-04T00:58:50;95279.09;;;21.37;63.13
15477;BME280;7840;42.702;23.296;2022-07-04T01:01:30;95282.94;;;21.22;63.27
15477;BME280;7840;42.702;23.296;2022-07-04T01:03:58;95273.06;;;21.40;62.47
15477;BME280;7840;42.702;23.296;2022-07-04T01:06:27;95270.97;;;21.28;62.51
15477;BME280;7840;42.702;23.296;2022-07-04T01:08:56;95277.44;;;21.27;62.28
15477;BME280;7840;42.702;23.296;2022-07-04T01:11:26;95288.72;;;21.29;62.29
15477;BME280;7840;42.702;23.296;2022-07-04T01:13:54;95286.75;;;21.21;62.13
15477;BME280;7840;42.702;23.296;2022-07-04T01:16:25;95291.34;;;21.21;61.66
15477;BME280;7840;42.702;23.296;2022-07-04T01:18:53;95284.16;;;21.16;61.66
15477;BME280;7840;42.702;23.296;2022-07-04T01:21:27;95287.03;;;21.20;61.51
15477;BME280;7840;42.702;23.296;2022-07-04T01:23:55;95282.22;;;21.08;61.95
15477;BME280;7840;42.702;23.296;2022-07-04T01:26:26;95282.03;;;21.04;61.54
15477;BME280;7840;42.702;23.296;2022-07-04T01:28:57;95286.97;;;21.11;61.58
15477;BME280;7840;42.702;23.296;2022-07-04T01:31:37;95282.44;;;21.20;60.43
15477;BME280;7840;42.702;23.296;2022-07-04T01:34:05;95283.09;;;21.26;59.90
15477;BME280;7840;42.702;23.296;2022-07-04T01:36:36;95286.75;;;21.21;59.77
15477;BME280;7840;42.702;23.296;2022-07-04T01:39:14;95280.38;;;21.17;59.80
15477;BME280;7840;42.702;23.296;2022-07-04T01:41:47;95288.13;;;21.19;59.83
15477;BME280;7840;42.702;23.296;2022-07-04T01:44:16;95288.22;;;21.05;60.04
15477;BME280;7840;42.702;23.296;2022-07-04T01:46:43;95289.63;;;21.02;60.28
15477;BME280;7840;42.702;23.296;2022-07-04T01:49:14;95291.53;;;21.02;60.14
15477;BME280;7840;42.702;23.296;2022-07-04T01:51:46;95289.44;;;20.99;60.52
15477;BME280;7840;42.702;23.296;2022-07-04T01:54:17;95291.47;;;20.93;59.50
15477;BME280;7840;42.702;23.296;2022-07-04T01:56:52;95278.31;;;20.92;59.32
15477;BME280;7840;42.702;23.296;2022-07-04T01:59:21;95282.47;;;20.98;59.05
15477;BME280;7840;42.702;23.296;2022-07-04T02:02:10;95282.66;;;21.01;58.63
15477;BME280;7840;42.702;23.296;2022-07-04T02:04:47;95282.72;;;20.88;58.80
15477;BME280;7840;42.702;23.296;2022-07-04T02:07:17;95291.91;;;20.87;58.69
15477;BME280;7840;42.702;23.296;2022-07-04T02:09:45;95293.31;;;20.84;58.55
15477;BME280;7840;42.702;23.296;2022-07-04T02:12:13;95295.56;;;20.91;58.39
15477;BME280;7840;42.702;23.296;2022-07-04T02:15:18;95292.34;;;20.80;58.47
15477;BME280;7840;42.702;23.296;2022-07-04T02:17:46;95293.81;;;20.86;57.85
15477;BME280;7840;42.702;23.296;2022-07-04T02:20:13;95300.03;;;20.95;57.71
15477;BME280;7840;42.702;23.296;2022-07-04T02:22:43;95292.63;;;21.01;57.24
15477;BME280;7840;42.702;23.296;2022-07-04T02:25:10;95300.16;;;20.90;56.61
15477;BME280;7840;42.702;23.296;2022-07-04T02:27:38;95291.16;;;20.95;56.38
15477;BME280;7840;42.702;23.296;2022-07-04T02:30:07;95304.28;;;20.88;56.08
15477;BME280;7840;42.702;23.296;2022-07-04T02:32:35;95304.06;;;20.84;56.10
15477;BME280;7840;42.702;23.296;2022-07-04T02:35:16;95303.84;;;20.94;56.29
15477;BME280;7840;42.702;23.296;2022-07-04T02:37:46;95299.00;;;21.05;56.25
15477;BME280;7840;42.702;23.296;2022-07-04T02:40:31;95293.97;;;21.12;56.10
15477;BME280;7840;42.702;23.296;2022-07-04T02:45:29;95290.66;;;20.93;56.54
15477;BME280;7840;42.702;23.296;2022-07-04T02:47:57;95303.53;;;20.73;55.81
15477;BME280;7840;42.702;23.296;2022-07-04T02:50:37;95313.59;;;20.68;56.02
15477;BME280;7840;42.702;23.296;2022-07-04T02:53:10;95319.31;;;20.66;55.76
15477;BME280;7840;42.702;23.296;2022-07-04T02:55:37;95318.56;;;20.74;55.98
15477;BME280;7840;42.702;23.296;2022-07-04T02:58:05;95320.06;;;20.81;55.72
15477;BME280;7840;42.702;23.296;2022-07-04T03:00:33;95312.25;;;20.79;55.53
15477;BME280;7840;42.702;23.296;2022-07-04T03:03:04;95325.19;;;20.91;55.31
15477;BME280;7840;42.702;23.296;2022-07-04T03:05:34;95324.75;;;20.97;55.24
15477;BME280;7840;42.702;23.296;2022-07-04T03:08:05;95331.31;;;21.05;55.42
15477;BME280;7840;42.702;23.296;2022-07-04T03:10:34;95330.81;;;20.81;54.94
15477;BME280;7840;42.702;23.296;2022-07-04T03:13:16;95325.66;;;20.70;55.46
15477;BME280;7840;42.702;23.296;2022-07-04T03:15:44;95332.03;;;20.74;55.42
15477;BME280;7840;42.702;23.296;2022-07-04T03:18:12;95330.81;;;20.81;55.32
15477;BME280;7840;42.702;23.296;2022-07-04T03:20:50;95331.66;;;20.67;55.06
15477;BME280;7840;42.702;23.296;2022-07-04T03:23:18;95332.22;;;20.78;54.69
15477;BME280;7840;42.702;23.296;2022-07-04T03:25:54;95326.13;;;20.72;54.72
15477;BME280;7840;42.702;23.296;2022-07-04T03:28:23;95325.84;;;20.74;54.76
15477;BME280;7840;42.702;23.296;2022-07-04T03:30:51;95330.81;;;20.81;54.23
15477;BME280;7840;42.702;23.296;2022-07-04T03:33:19;95327.72;;;20.87;54.05
15477;BME280;7840;42.702;23.296;2022-07-04T03:35:48;95326.78;;;20.92;54.10
15477;BME280;7840;42.702;23.296;2022-07-04T03:38:19;95330.34;;;21.01;53.84
15477;BME280;7840;42.702;23.296;2022-07-04T03:40:46;95328.50;;;21.10;54.00
15477;BME280;7840;42.702;23.296;2022-07-04T03:43:15;95327.28;;;21.16;54.00
15477;BME280;7840;42.702;23.296;2022-07-04T03:45:43;95329.22;;;21.24;53.44
15477;BME280;7840;42.702;23.296;2022-07-04T03:48:11;95330.41;;;21.32;53.74
15477;BME280;7840;42.702;23.296;2022-07-04T03:50:38;95328.19;;;21.12;53.00
15477;BME280;7840;42.702;23.296;2022-07-04T03:53:23;95326.13;;;21.09;53.87
15477;BME280;7840;42.702;23.296;2022-07-04T03:55:51;95320.66;;;21.22;52.98
15477;BME280;7840;42.702;23.296;2022-07-04T03:58:22;95320.03;;;21.25;52.76
15477;BME280;7840;42.702;23.296;2022-07-04T04:00:50;95317.59;;;21.38;52.70
15477;BME280;7840;42.702;23.296;2022-07-04T04:03:18;95328.75;;;21.45;53.01
15477;BME280;7840;42.702;23.296;2022-07-04T04:06:17;95325.41;;;21.48;52.50
15477;BME280;7840;42.702;23.296;2022-07-04T04:08:45;95325.66;;;21.60;52.92
15477;BME280;7840;42.702;23.296;2022-07-04T04:11:13;95325.72;;;21.69;52.08
15477;BME280;7840;42.702;23.296;2022-07-04T04:13:55;95328.13;;;21.79;51.78
15477;BME280;7840;42.702;23.296;2022-07-04T04:16:22;95318.25;;;21.74;52.55
15477;BME280;7840;42.702;23.296;2022-07-04T04:18:50;95326.78;;;21.14;56.89
15477;BME280;7840;42.702;23.296;2022-07-04T04:21:17;95330.94;;;20.98;59.66
15477;BME280;7840;42.702;23.296;2022-07-04T04:23:45;95332.19;;;21.14;60.61
15477;BME280;7840;42.702;23.296;2022-07-04T04:26:13;95333.03;;;21.23;61.95
15477;BME280;7840;42.702;23.296;2022-07-04T04:28:43;95333.34;;;21.44;62.06
15477;BME280;7840;42.702;23.296;2022-07-04T04:31:12;95329.09;;;21.52;60.64
15477;BME280;7840;42.702;23.296;2022-07-04T04:33:40;95338.81;;;21.62;59.53
15477;BME280;7840;42.702;23.296;2022-07-04T04:36:08;95328.13;;;21.48;64.46
15477;BME280;7840;42.702;23.296;2022-07-04T04:38:35;95336.94;;;21.40;66.64
15477;BME280;7840;42.702;23.296;2022-07-04T04:41:03;95344.28;;;21.03;68.56
15477;BME280;7840;42.702;23.296;2022-07-04T04:43:31;95342.56;;;20.85;69.55
15477;BME280;7840;42.702;23.296;2022-07-04T04:45:58;95339.63;;;20.59;70.57
15477;BME280;7840;42.702;23.296;2022-07-04T04:48:28;95344.53;;;20.93;69.50
15477;BME280;7840;42.702;23.296;2022-07-04T04:50:55;95336.16;;;20.94;69.00
15477;BME280;7840;42.702;23.296;2022-07-04T04:53:23;95341.44;;;20.86;69.88
15477;BME280;7840;42.702;23.296;2022-07-04T04:55:52;95338.66;;;21.13;68.87
15477;BME280;7840;42.702;23.296;2022-07-04T04:58:20;95328.75;;;21.22;67.54
15477;BME280;7840;42.702;23.296;2022-07-04T05:00:48;95334.41;;;21.35;68.46
15477;BME280;7840;42.702;23.296;2022-07-04T05:03:17;95335.28;;;21.52;67.35
15477;BME280;7840;42.702;23.296;2022-07-04T05:05:47;95345.03;;;21.62;66.50
15477;BME280;7840;42.702;23.296;2022-07-04T05:10:57;95336.16;;;21.39;66.68
15477;BME280;7840;42.702;23.296;2022-07-04T05:13:25;95338.25;;;21.42;66.16
15477;BME280;7840;42.702;23.296;2022-07-04T05:15:53;95327.13;;;21.35;66.07
15477;BME280;7840;42.702;23.296;2022-07-04T05:18:24;95325.84;;;21.64;66.74
15477;BME280;7840;42.702;23.296;2022-07-04T05:20:57;95334.66;;;21.87;63.71
15477;BME280;7840;42.702;23.296;2022-07-04T05:23:29;95331.59;;;22.10;64.11
15477;BME280;7840;42.702;23.296;2022-07-04T05:26:01;95334.00;;;22.21;63.49
15477;BME280;7840;42.702;23.296;2022-07-04T05:28:29;95337.75;;;21.71;65.13
15477;BME280;7840;42.702;23.296;2022-07-04T05:31:00;95341.91;;;21.77;63.48
15477;BME280;7840;42.702;23.296;2022-07-04T05:33:34;95337.56;;;21.99;62.84
15477;BME280;7840;42.702;23.296;2022-07-04T05:39:01;95330.38;;;22.43;61.36
15477;BME280;7840;42.702;23.296;2022-07-04T05:41:31;95330.56;;;22.55;60.26
15477;BME280;7840;42.702;23.296;2022-07-04T05:44:05;95342.31;;;22.02;60.51
15477;BME280;7840;42.702;23.296;2022-07-04T05:46:33;95325.91;;;22.29;61.90
15477;BME280;7840;42.702;23.296;2022-07-04T05:49:00;95342.06;;;22.12;59.89
15477;BME280;7840;42.702;23.296;2022-07-04T05:51:29;95330.69;;;22.24;60.45
15477;BME280;7840;42.702;23.296;2022-07-04T05:54:00;95326.28;;;22.54;59.41
15477;BME280;7840;42.702;23.296;2022-07-04T05:56:27;95330.38;;;22.25;60.74
15477;BME280;7840;42.702;23.296;2022-07-04T05:58:58;95330.09;;;22.44;57.88
15477;BME280;7840;42.702;23.296;2022-07-04T06:01:26;95325.50;;;22.71;58.00
15477;BME280;7840;42.702;23.296;2022-07-04T06:03:59;95335.22;;;23.15;56.20
15477;BME280;7840;42.702;23.296;2022-07-04T06:06:28;95327.50;;;23.52;55.27
15477;BME280;7840;42.702;23.296;2022-07-04T06:08:57;95336.38;;;23.78;52.53
15477;BME280;7840;42.702;23.296;2022-07-04T06:11:26;95330.91;;;23.95;51.72
15477;BME280;7840;42.702;23.296;2022-07-04T06:13:53;95331.75;;;24.17;50.52
15477;BME280;7840;42.702;23.296;2022-07-04T06:16:21;95332.00;;;24.03;51.45
15477;BME280;7840;42.702;23.296;2022-07-04T06:18:52;95330.25;;;23.98;52.38
15477;BME280;7840;42.702;23.296;2022-07-04T06:21:19;95330.91;;;23.95;50.80
15477;BME280;7840;42.702;23.296;2022-07-04T06:23:49;95330.41;;;24.32;49.59
15477;BME280;7840;42.702;23.296;2022-07-04T06:26:17;95331.88;;;24.59;49.01
15477;BME280;7840;42.702;23.296;2022-07-04T06:28:44;95331.72;;;24.76;48.20
15477;BME280;7840;42.702;23.296;2022-07-04T06:31:29;95324.38;;;24.97;46.86
15477;BME280;7840;42.702;23.296;2022-07-04T06:34:02;95320.69;;;25.23;47.42
15477;BME280;7840;42.702;23.296;2022-07-04T06:36:47;95324.13;;;25.44;46.24
15477;BME280;7840;42.702;23.296;2022-07-04T06:39:21;95314.47;;;25.55;43.99
15477;BME280;7840;42.702;23.296;2022-07-04T06:42:02;95328.94;;;25.72;42.68
15477;BME280;7840;42.702;23.296;2022-07-04T06:44:32;95321.88;;;25.79;42.44
15477;BME280;7840;42.702;23.296;2022-07-04T06:47:00;95319.72;;;25.73;42.25
15477;BME280;7840;42.702;23.296;2022-07-04T06:49:27;95328.09;;;25.80;42.27
15477;BME280;7840;42.702;23.296;2022-07-04T06:51:57;95319.75;;;26.09;42.85
15477;BME280;7840;42.702;23.296;2022-07-04T06:54:32;95311.97;;;26.08;42.11
15477;BME280;7840;42.702;23.296;2022-07-04T06:57:04;95313.88;;;26.32;42.37
15477;BME280;7840;42.702;23.296;2022-07-04T06:59:31;95312.06;;;26.48;42.08
15477;BME280;7840;42.702;23.296;2022-07-04T07:01:59;95314.66;;;26.32;41.26
15477;BME280;7840;42.702;23.296;2022-07-04T07:04:26;95312.97;;;26.40;41.78
15477;BME280;7840;42.702;23.296;2022-07-04T07:06:57;95304.81;;;26.52;42.54
15477;BME280;7840;42.702;23.296;2022-07-04T07:09:40;95300.63;;;26.55;41.15
15477;BME280;7840;42.702;23.296;2022-07-04T07:12:22;95304.28;;;26.87;41.44
15477;BME280;7840;42.702;23.296;2022-07-04T07:14:52;95305.13;;;27.03;41.43
15477;BME280;7840;42.702;23.296;2022-07-04T07:17:21;95294.19;;;27.27;40.76
15477;BME280;7840;42.702;23.296;2022-07-04T07:19:48;95281.75;;;27.58;39.60
15477;BME280;7840;42.702;23.296;2022-07-04T07:22:16;95288.97;;;27.66;39.44
15477;BME280;7840;42.702;23.296;2022-07-04T07:24:45;95293.66;;;27.82;40.20
15477;BME280;7840;42.702;23.296;2022-07-04T07:29:55;95283.63;;;28.17;38.88
15477;BME280;7840;42.702;23.296;2022-07-04T07:32:24;95291.78;;;28.49;39.92
15477;BME280;7840;42.702;23.296;2022-07-04T07:35:09;95280.72;;;28.61;39.65
15477;BME280;7840;42.702;23.296;2022-07-04T07:37:41;95282.31;;;28.11;39.90
15477;BME280;7840;42.702;23.296;2022-07-04T07:40:25;95288.66;;;28.15;40.87
15477;BME280;7840;42.702;23.296;2022-07-04T07:42:57;95288.22;;;28.64;40.05
15477;BME280;7840;42.702;23.296;2022-07-04T07:45:25;95281.81;;;28.56;39.55
15477;BME280;7840;42.702;23.296;2022-07-04T07:47:53;95282.75;;;28.64;40.30
15477;BME280;7840;42.702;23.296;2022-07-04T07:50:20;95272.75;;;29.07;38.89
15477;BME280;7840;42.702;23.296;2022-07-04T07:52:48;95272.63;;;29.00;40.06
15477;BME280;7840;42.702;23.296;2022-07-04T07:55:15;95279.69;;;28.30;40.56
15477;BME280;7840;42.702;23.296;2022-07-04T07:57:45;95260.22;;;28.67;41.07
15477;BME280;7840;42.702;23.296;2022-07-04T08:00:19;95265.94;;;28.97;40.34
15477;BME280;7840;42.702;23.296;2022-07-04T08:02:50;95269.28;;;29.29;39.63
15477;BME280;7840;42.702;23.296;2022-07-04T08:05:35;95269.16;;;28.83;40.59
15477;BME280;7840;42.702;23.296;2022-07-04T08:08:21;95268.97;;;29.54;39.06
15477;BME280;7840;42.702;23.296;2022-07-04T08:10:51;95272.63;;;29.84;38.64
15477;BME280;7840;42.702;23.296;2022-07-04T08:13:28;95268.13;;;29.95;39.01
15477;BME280;7840;42.702;23.296;2022-07-04T08:16:01;95270.56;;;29.55;39.00
15477;BME280;7840;42.702;23.296;2022-07-04T08:18:29;95274.84;;;29.13;40.60
15477;BME280;7840;42.702;23.296;2022-07-04T08:20:57;95273.13;;;29.67;39.50
15477;BME280;7840;42.702;23.296;2022-07-04T08:23:26;95268.91;;;30.19;39.14
15477;BME280;7840;42.702;23.296;2022-07-04T08:25:54;95268.66;;;30.28;38.33
15477;BME280;7840;42.702;23.296;2022-07-04T08:28:28;95261.06;;;30.44;37.56
15477;BME280;7840;42.702;23.296;2022-07-04T08:34:15;95250.34;;;31.22;37.17
15477;BME280;7840;42.702;23.296;2022-07-04T08:36:43;95252.91;;;31.41;37.71
15477;BME280;7840;42.702;23.296;2022-07-04T08:39:10;95249.13;;;31.53;37.10
15477;BME280;7840;42.702;23.296;2022-07-04T08:41:40;95241.50;;;31.73;36.08
15477;BME280;7840;42.702;23.296;2022-07-04T08:44:24;95236.91;;;31.84;36.89
15477;BME280;7840;42.702;23.296;2022-07-04T08:46:55;95235.88;;;32.03;37.34
15477;BME280;7840;42.702;23.296;2022-07-04T08:49:29;95237.19;;;32.20;37.06
15477;BME280;7840;42.702;23.296;2022-07-04T08:52:01;95251.34;;;32.29;36.68
15477;BME280;7840;42.702;23.296;2022-07-04T08:54:31;95246.25;;;32.27;36.13
15477;BME280;7840;42.702;23.296;2022-07-04T08:57:17;95240.97;;;32.66;35.46
15477;BME280;7840;42.702;23.296;2022-07-04T09:00:14;95242.97;;;32.70;36.13
15477;BME280;7840;42.702;23.296;2022-07-04T09:02:41;95238.66;;;32.69;36.42
15477;BME280;7840;42.702;23.296;2022-07-04T09:05:32;95237.56;;;32.84;36.22
15477;BME280;7840;42.702;23.296;2022-07-04T09:08:00;95242.78;;;33.21;34.65
15477;BME280;7840;42.702;23.296;2022-07-04T09:10:30;95248.78;;;33.55;34.71
15477;BME280;7840;42.702;23.296;2022-07-04T09:13:00;95227.53;;;33.24;34.76
15477;BME280;7840;42.702;23.296;2022-07-04T09:15:47;95227.56;;;33.38;35.16
15477;BME280;7840;42.702;23.296;2022-07-04T09:18:23;95225.19;;;33.33;36.28
15477;BME280;7840;42.702;23.296;2022-07-04T09:20:54;95233.06;;;33.41;34.32
15477;BME280;7840;42.702;23.296;2022-07-04T09:23:23;95234.88;;;32.91;34.71
15477;BME280;7840;42.702;23.296;2022-07-04T09:26:13;95238.59;;;33.59;35.10
15477;BME280;7840;42.702;23.296;2022-07-04T09:28:53;95229.06;;;33.17;32.88
15477;BME280;7840;42.702;23.296;2022-07-04T09:31:26;95234.56;;;33.17;32.51
15477;BME280;7840;42.702;23.296;2022-07-04T09:33:59;95225.22;;;33.40;32.27
15477;BME280;7840;42.702;23.296;2022-07-04T09:36:32;95225.25;;;33.61;31.71
15477;BME280;7840;42.702;23.296;2022-07-04T09:39:11;95216.56;;;33.31;31.13
15477;BME280;7840;42.702;23.296;2022-07-04T09:41:51;95209.19;;;33.95;31.22
15477;BME280;7840;42.702;23.296;2022-07-04T09:44:22;95226.88;;;33.91;31.26
15477;BME280;7840;42.702;23.296;2022-07-04T09:46:50;95214.66;;;34.24;30.82
15477;BME280;7840;42.702;23.296;2022-07-04T09:49:19;95207.94;;;34.50;31.01
15477;BME280;7840;42.702;23.296;2022-07-04T09:51:50;95207.97;;;34.46;31.37
15477;BME280;7840;42.702;23.296;2022-07-04T09:54:25;95208.28;;;34.70;31.80
15477;BME280;7840;42.702;23.296;2022-07-04T09:56:59;95213.38;;;34.71;31.54
15477;BME280;7840;42.702;23.296;2022-07-04T09:59:28;95206.28;;;34.77;31.46
15477;BME280;7840;42.702;23.296;2022-07-04T10:02:09;95207.56;;;34.41;30.98
15477;BME280;7840;42.702;23.296;2022-07-04T10:04:52;95212.53;;;34.85;31.08
15477;BME280;7840;42.702;23.296;2022-07-04T10:07:35;95210.19;;;34.94;31.82
15477;BME280;7840;42.702;23.296;2022-07-04T10:10:31;95220.50;;;34.54;31.35
15477;BME280;7840;42.702;23.296;2022-07-04T10:13:03;95218.38;;;35.05;31.32
15477;BME280;7840;42.702;23.296;2022-07-04T10:15:32;95216.06;;;34.96;32.05
15477;BME280;7840;42.702;23.296;2022-07-04T10:18:00;95216.91;;;34.75;31.69
15477;BME280;7840;42.702;23.296;2022-07-04T10:20:28;95214.88;;;35.01;31.66
15477;BME280;7840;42.702;23.296;2022-07-04T10:22:58;95204.97;;;35.14;31.21
15477;BME280;7840;42.702;23.296;2022-07-04T10:25:29;95201.19;;;35.53;30.89
15477;BME280;7840;42.702;23.296;2022-07-04T10:27:58;95197.06;;;35.75;30.75
15477;BME280;7840;42.702;23.296;2022-07-04T10:30:28;95195.78;;;35.94;29.96
15477;BME280;7840;42.702;23.296;2022-07-04T10:32:59;95192.88;;;36.12;30.44
15477;BME280;7840;42.702;23.296;2022-07-04T10:35:49;95200.00;;;36.06;30.67
15477;BME280;7840;42.702;23.296;2022-07-04T10:38:26;95185.81;;;36.07;30.46
15477;BME280;7840;42.702;23.296;2022-07-04T10:40:55;95190.66;;;35.93;30.67
15477;BME280;7840;42.702;23.296;2022-07-04T10:46:26;95182.22;;;36.52;30.20
15477;BME280;7840;42.702;23.296;2022-07-04T10:48:55;95184.78;;;35.87;30.95
15477;BME280;7840;42.702;23.296;2022-07-04T10:51:41;95187.53;;;35.91;30.82
15477;BME280;7840;42.702;23.296;2022-07-04T10:54:33;95184.38;;;36.33;29.79
15477;BME280;7840;42.702;23.296;2022-07-04T10:57:13;95173.81;;;36.62;29.19
15477;BME280;7840;42.702;23.296;2022-07-04T10:59:42;95174.03;;;36.79;29.90
15477;BME280;7840;42.702;23.296;2022-07-04T11:02:27;95171.69;;;37.08;29.35
15477;BME280;7840;42.702;23.296;2022-07-04T11:05:00;95170.78;;;37.45;28.69
15477;BME280;7840;42.702;23.296;2022-07-04T11:07:57;95172.22;;;37.80;28.43
15477;BME280;7840;42.702;23.296;2022-07-04T11:10:29;95165.00;;;38.10;27.45
15477;BME280;7840;42.702;23.296;2022-07-04T11:13:07;95161.88;;;37.84;28.42
15477;BME280;7840;42.702;23.296;2022-07-04T11:16:01;95156.06;;;38.22;27.88
15477;BME280;7840;42.702;23.296;2022-07-04T11:18:29;95166.63;;;38.07;28.19
15477;BME280;7840;42.702;23.296;2022-07-04T11:21:20;95158.00;;;37.78;28.65
15477;BME280;7840;42.702;23.296;2022-07-04T11:23:54;95157.25;;;36.96;29.43
15477;BME280;7840;42.702;23.296;2022-07-04T11:26:27;95156.41;;;36.31;30.64
15477;BME280;7840;42.702;23.296;2022-07-04T11:28:55;95163.00;;;36.45;30.83
15477;BME280;7840;42.702;23.296;2022-07-04T11:31:41;95161.53;;;36.67;30.72
15477;BME280;7840;42.702;23.296;2022-07-04T11:34:09;95155.69;;;36.95;30.33
15477;BME280;7840;42.702;23.296;2022-07-04T11:36:39;95154.28;;;36.80;30.29
15477;BME280;7840;42.702;23.296;2022-07-04T11:39:22;95144.28;;;35.25;32.63
15477;BME280;7840;42.702;23.296;2022-07-04T11:41:54;95147.16;;;36.49;30.95
15477;BME280;7840;42.702;23.296;2022-07-04T11:44:42;95139.06;;;37.26;29.43
15477;BME280;7840;42.702;23.296;2022-07-04T11:47:37;95135.25;;;36.89;29.51
15477;BME280;7840;42.702;23.296;2022-07-04T11:50:08;95131.72;;;37.16;29.36
15477;BME280;7840;42.702;23.296;2022-07-04T11:52:43;95129.94;;;36.00;30.16
15477;BME280;7840;42.702;23.296;2022-07-04T11:55:18;95122.94;;;35.43;32.50
15477;BME280;7840;42.702;23.296;2022-07-04T11:58:04;95107.97;;;36.91;30.68
15477;BME280;7840;42.702;23.296;2022-07-04T12:00:32;95115.47;;;37.48;29.17
15477;BME280;7840;42.702;23.296;2022-07-04T12:03:01;95112.50;;;37.32;29.51
15477;BME280;7840;42.702;23.296;2022-07-04T12:05:33;95107.66;;;37.13;29.94
15477;BME280;7840;42.702;23.296;2022-07-04T12:08:10;95110.03;;;36.87;30.05
15477;BME280;7840;42.702;23.296;2022-07-04T12:10:55;95108.84;;;36.88;30.96
15477;BME280;7840;42.702;23.296;2022-07-04T12:13:34;95106.69;;;37.77;29.61
15477;BME280;7840;42.702;23.296;2022-07-04T12:16:11;95097.06;;;37.38;29.29
15477;BME280;7840;42.702;23.296;2022-07-04T12:18:39;95102.66;;;37.58;29.97
15477;BME280;7840;42.702;23.296;2022-07-04T12:21:14;95096.22;;;37.65;28.92
15477;BME280;7840;42.702;23.296;2022-07-04T12:23:56;95093.22;;;38.02;28.58
15477;BME280;7840;42.702;23.296;2022-07-04T12:26:24;95095.28;;;38.58;28.48
15477;BME280;7840;42.702;23.296;2022-07-04T12:28:57;95093.22;;;38.82;27.72
15477;BME280;7840;42.702;23.296;2022-07-04T12:31:38;95094.78;;;38.03;28.55
15477;BME280;7840;42.702;23.296;2022-07-04T12:34:19;95089.25;;;37.57;29.30
15477;BME280;7840;42.702;23.296;2022-07-04T12:37:10;95084.06;;;38.05;28.52
15477;BME280;7840;42.702;23.296;2022-07-04T12:40:07;95088.72;;;38.72;28.88
15477;BME280;7840;42.702;23.296;2022-07-04T12:42:39;95091.22;;;38.63;28.82
15477;BME280;7840;42.702;23.296;2022-07-04T12:45:19;95085.63;;;39.02;28.47
15477;BME280;7840;42.702;23.296;2022-07-04T12:47:49;95089.66;;;38.62;28.70
15477;BME280;7840;42.702;23.296;2022-07-04T12:50:25;95085.63;;;38.66;28.07
15477;BME280;7840;42.702;23.296;2022-07-04T12:52:53;95089.78;;;37.95;28.82
15477;BME280;7840;42.702;23.296;2022-07-04T12:55:21;95091.53;;;38.48;28.47
15477;BME280;7840;42.702;23.296;2022-07-04T12:57:52;95084.56;;;39.16;27.62
15477;BME280;7840;42.702;23.296;2022-07-04T13:00:21;95075.13;;;39.62;27.26
15477;BME280;7840;42.702;23.296;2022-07-04T13:02:50;95071.81;;;39.84;26.47
15477;BME280;7840;42.702;23.296;2022-07-04T13:05:35;95068.09;;;39.74;27.05
15477;BME280;7840;42.702;23.296;2022-07-04T13:08:04;95070.81;;;39.61;27.65
15477;BME280;7840;42.702;23.296;2022-07-04T13:10:33;95067.16;;;39.48;28.06
15477;BME280;7840;42.702;23.296;2022-07-04T13:13:01;95067.66;;;39.59;27.65
15477;BME280;7840;42.702;23.296;2022-07-04T13:15:35;95057.59;;;39.82;27.41
15477;BME280;7840;42.702;23.296;2022-07-04T13:18:03;95070.44;;;39.76;27.05
15477;BME280;7840;42.702;23.296;2022-07-04T13:20:31;95063.19;;;39.33;27.42
15477;BME280;7840;42.702;23.296;2022-07-04T13:22:58;95065.22;;;39.78;26.88
15477;BME280;7840;42.702;23.296;2022-07-04T13:25:26;95058.00;;;40.26;26.21
15477;BME280;7840;42.702;23.296;2022-07-04T13:27:54;95061.00;;;40.60;25.52
15477;BME280;7840;42.702;23.296;2022-07-04T13:30:21;95059.47;;;40.30;25.79
15477;BME280;7840;42.702;23.296;2022-07-04T13:32:50;95048.63;;;39.90;25.54
15477;BME280;7840;42.702;23.296;2022-07-04T13:35:24;95051.75;;;39.92;25.72
15477;BME280;7840;42.702;23.296;2022-07-04T13:37:54;95044.94;;;39.81;26.46
15477;BME280;7840;42.702;23.296;2022-07-04T13:40:55;95042.97;;;39.94;26.13
15477;BME280;7840;42.702;23.296;2022-07-04T13:43:26;95041.25;;;40.29;25.71
15477;BME280;7840;42.702;23.296;2022-07-04T13:48:27;95034.75;;;40.61;25.71